sensor_id;sensor_type;location;lat;lon;timestamp;P1;durP1;ratioP1;P2;durP2;ratioP2
17987;SDS011;9119;50.932;5.342;2022-07-06T00:01:36;5.30;;;2.93;;
17987;SDS011;9119;50.932;5.342;2022-07-06T00:04:02;4.67;;;3.17;;
17987;SDS011;9119;50.932;5.342;2022-07-06T00:06:28;8.70;;;3.43;;
17987;SDS011;9119;50.932;5.342;2022-07-06T00:08:54;8.90;;;3.53;;
17987;SDS011;9119;50.932;5.342;2022-07-06T00:11:19;8.33;;;3.30;;
17987;SDS011;9119;50.932;5.342;2022-07-06T00:13:45;6.07;;;3.30;;
17987;SDS011;9119;50.932;5.342;2022-07-06T00:16:11;6.80;;;3.33;;
17987;SDS011;9119;50.932;5.342;2022-07-06T00:18:37;8.07;;;3.10;;
17987;SDS011;9119;50.932;5.342;2022-07-06T00:21:03;7.67;;;3.47;;
17987;SDS011;9119;50.932;5.342;2022-07-06T00:23:28;8.73;;;3.97;;
17987;SDS011;9119;50.932;5.342;2022-07-06T00:25:55;7.47;;;4.13;;
17987;SDS011;9119;50.932;5.342;2022-07-06T00:28:20;6.37;;;3.40;;
17987;SDS011;9119;50.932;5.342;2022-07-06T00:30:46;11.93;;;3.13;;
17987;SDS011;9119;50.932;5.342;2022-07-06T00:33:12;9.03;;;3.03;;
17987;SDS011;9119;50.932;5.342;2022-07-06T00:35:37;8.07;;;3.50;;
17987;SDS011;9119;50.932;5.342;2022-07-06T00:38:03;7.80;;;3.07;;
17987;SDS011;9119;50.932;5.342;2022-07-06T00:40:29;7.30;;;3.03;;
17987;SDS011;9119;50.932;5.342;2022-07-06T00:42:55;6.50;;;3.50;;
17987;SDS011;9119;50.932;5.342;2022-07-06T00:45:21;8.87;;;3.60;;
17987;SDS011;9119;50.932;5.342;2022-07-06T00:47:47;12.83;;;3.40;;
17987;SDS011;9119;50.932;5.342;2022-07-06T00:50:14;5.13;;;3.40;;
17987;SDS011;9119;50.932;5.342;2022-07-06T00:52:47;7.80;;;3.63;;
17987;SDS011;9119;50.932;5.342;2022-07-06T00:55:16;9.43;;;3.43;;
17987;SDS011;9119;50.932;5.342;2022-07-06T00:57:43;5.50;;;3.37;;
17987;SDS011;9119;50.932;5.342;2022-07-06T01:00:10;8.63;;;3.33;;
17987;SDS011;9119;50.932;5.342;2022-07-06T01:02:37;8.13;;;3.60;;
17987;SDS011;9119;50.932;5.342;2022-07-06T01:05:04;8.97;;;3.13;;
17987;SDS011;9119;50.932;5.342;2022-07-06T01:07:30;9.40;;;3.60;;
17987;SDS011;9119;50.932;5.342;2022-07-06T01:09:56;9.27;;;3.53;;
17987;SDS011;9119;50.932;5.342;2022-07-06T01:12:22;7.23;;;3.57;;
17987;SDS011;9119;50.932;5.342;2022-07-06T01:14:49;8.20;;;3.77;;
17987;SDS011;9119;50.932;5.342;2022-07-06T01:17:15;8.03;;;3.80;;
17987;SDS011;9119;50.932;5.342;2022-07-06T01:19:42;9.63;;;3.43;;
17987;SDS011;9119;50.932;5.342;2022-07-06T01:22:08;7.43;;;3.93;;
17987;SDS011;9119;50.932;5.342;2022-07-06T01:24:35;6.50;;;3.57;;
17987;SDS011;9119;50.932;5.342;2022-07-06T01:27:01;7.47;;;3.73;;
17987;SDS011;9119;50.932;5.342;2022-07-06T01:29:31;7.17;;;3.57;;
17987;SDS011;9119;50.932;5.342;2022-07-06T01:31:56;7.20;;;3.23;;
17987;SDS011;9119;50.932;5.342;2022-07-06T01:34:22;9.53;;;3.47;;
17987;SDS011;9119;50.932;5.342;2022-07-06T01:36:48;13.33;;;3.87;;
17987;SDS011;9119;50.932;5.342;2022-07-06T01:39:13;9.63;;;3.60;;
17987;SDS011;9119;50.932;5.342;2022-07-06T01:41:39;9.90;;;3.40;;
17987;SDS011;9119;50.932;5.342;2022-07-06T01:44:05;10.37;;;3.70;;
17987;SDS011;9119;50.932;5.342;2022-07-06T01:46:32;8.40;;;3.50;;
17987;SDS011;9119;50.932;5.342;2022-07-06T01:48:58;7.40;;;3.27;;
17987;SDS011;9119;50.932;5.342;2022-07-06T01:51:23;9.27;;;3.90;;
17987;SDS011;9119;50.932;5.342;2022-07-06T01:53:50;6.03;;;3.60;;
17987;SDS011;9119;50.932;5.342;2022-07-06T01:56:16;9.30;;;3.90;;
17987;SDS011;9119;50.932;5.342;2022-07-06T01:58:44;7.97;;;3.80;;
17987;SDS011;9119;50.932;5.342;2022-07-06T02:01:11;11.20;;;3.97;;
17987;SDS011;9119;50.932;5.342;2022-07-06T02:03:42;8.33;;;3.87;;
17987;SDS011;9119;50.932;5.342;2022-07-06T02:06:08;7.87;;;4.10;;
17987;SDS011;9119;50.932;5.342;2022-07-06T02:08:35;5.30;;;3.80;;
17987;SDS011;9119;50.932;5.342;2022-07-06T02:11:03;6.03;;;3.80;;
17987;SDS011;9119;50.932;5.342;2022-07-06T02:13:32;11.20;;;4.07;;
17987;SDS011;9119;50.932;5.342;2022-07-06T02:15:59;7.80;;;4.00;;
17987;SDS011;9119;50.932;5.342;2022-07-06T02:18:25;9.27;;;4.10;;
17987;SDS011;9119;50.932;5.342;2022-07-06T02:20:51;9.40;;;3.57;;
17987;SDS011;9119;50.932;5.342;2022-07-06T02:23:16;7.00;;;4.03;;
17987;SDS011;9119;50.932;5.342;2022-07-06T02:25:42;7.57;;;3.70;;
17987;SDS011;9119;50.932;5.342;2022-07-06T02:28:08;12.67;;;4.07;;
17987;SDS011;9119;50.932;5.342;2022-07-06T02:30:33;9.53;;;3.77;;
17987;SDS011;9119;50.932;5.342;2022-07-06T02:32:59;7.30;;;3.97;;
17987;SDS011;9119;50.932;5.342;2022-07-06T02:35:25;9.37;;;3.60;;
17987;SDS011;9119;50.932;5.342;2022-07-06T02:37:50;8.47;;;3.67;;
17987;SDS011;9119;50.932;5.342;2022-07-06T02:40:16;9.80;;;4.13;;
17987;SDS011;9119;50.932;5.342;2022-07-06T02:42:42;7.63;;;3.40;;
17987;SDS011;9119;50.932;5.342;2022-07-06T02:45:08;5.77;;;3.40;;
17987;SDS011;9119;50.932;5.342;2022-07-06T02:47:34;11.57;;;4.23;;
17987;SDS011;9119;50.932;5.342;2022-07-06T02:50:00;8.10;;;3.90;;
17987;SDS011;9119;50.932;5.342;2022-07-06T02:52:25;8.30;;;3.60;;
17987;SDS011;9119;50.932;5.342;2022-07-06T02:54:51;8.33;;;3.63;;
17987;SDS011;9119;50.932;5.342;2022-07-06T02:57:17;10.27;;;4.60;;
17987;SDS011;9119;50.932;5.342;2022-07-06T02:59:43;15.77;;;5.97;;
17987;SDS011;9119;50.932;5.342;2022-07-06T03:02:09;7.73;;;4.00;;
17987;SDS011;9119;50.932;5.342;2022-07-06T03:04:35;10.77;;;3.70;;
17987;SDS011;9119;50.932;5.342;2022-07-06T03:07:00;9.73;;;3.50;;
17987;SDS011;9119;50.932;5.342;2022-07-06T03:09:26;8.27;;;4.10;;
17987;SDS011;9119;50.932;5.342;2022-07-06T03:11:52;11.47;;;4.13;;
17987;SDS011;9119;50.932;5.342;2022-07-06T03:14:18;12.93;;;3.90;;
17987;SDS011;9119;50.932;5.342;2022-07-06T03:16:44;11.97;;;4.17;;
17987;SDS011;9119;50.932;5.342;2022-07-06T03:19:09;9.87;;;4.10;;
17987;SDS011;9119;50.932;5.342;2022-07-06T03:21:35;12.13;;;4.00;;
17987;SDS011;9119;50.932;5.342;2022-07-06T03:24:01;8.20;;;3.83;;
17987;SDS011;9119;50.932;5.342;2022-07-06T03:26:26;10.80;;;4.60;;
17987;SDS011;9119;50.932;5.342;2022-07-06T03:28:52;11.27;;;4.03;;
17987;SDS011;9119;50.932;5.342;2022-07-06T03:31:18;11.03;;;4.03;;
17987;SDS011;9119;50.932;5.342;2022-07-06T03:33:43;10.10;;;4.03;;
17987;SDS011;9119;50.932;5.342;2022-07-06T03:36:09;6.07;;;4.30;;
17987;SDS011;9119;50.932;5.342;2022-07-06T03:38:35;8.97;;;4.33;;
17987;SDS011;9119;50.932;5.342;2022-07-06T03:41:01;10.80;;;5.03;;
17987;SDS011;9119;50.932;5.342;2022-07-06T03:43:26;7.70;;;4.13;;
17987;SDS011;9119;50.932;5.342;2022-07-06T03:45:52;10.77;;;4.47;;
17987;SDS011;9119;50.932;5.342;2022-07-06T03:48:18;12.60;;;5.30;;
17987;SDS011;9119;50.932;5.342;2022-07-06T03:50:43;11.73;;;4.37;;
17987;SDS011;9119;50.932;5.342;2022-07-06T03:53:09;12.27;;;4.60;;
17987;SDS011;9119;50.932;5.342;2022-07-06T03:55:35;12.30;;;4.13;;
17987;SDS011;9119;50.932;5.342;2022-07-06T03:58:01;9.80;;;4.50;;
17987;SDS011;9119;50.932;5.342;2022-07-06T04:00:26;6.33;;;4.00;;
17987;SDS011;9119;50.932;5.342;2022-07-06T04:02:52;12.47;;;4.07;;
17987;SDS011;9119;50.932;5.342;2022-07-06T04:05:17;7.43;;;4.50;;
17987;SDS011;9119;50.932;5.342;2022-07-06T04:07:49;10.70;;;4.30;;
17987;SDS011;9119;50.932;5.342;2022-07-06T04:10:18;10.53;;;4.20;;
17987;SDS011;9119;50.932;5.342;2022-07-06T04:12:44;12.43;;;4.37;;
17987;SDS011;9119;50.932;5.342;2022-07-06T04:15:10;7.67;;;3.73;;
17987;SDS011;9119;50.932;5.342;2022-07-06T04:17:36;9.03;;;4.17;;
17987;SDS011;9119;50.932;5.342;2022-07-06T04:20:18;11.67;;;4.37;;
17987;SDS011;9119;50.932;5.342;2022-07-06T04:22:48;21.07;;;4.80;;
17987;SDS011;9119;50.932;5.342;2022-07-06T04:25:14;7.67;;;3.83;;
17987;SDS011;9119;50.932;5.342;2022-07-06T04:27:40;12.57;;;6.70;;
17987;SDS011;9119;50.932;5.342;2022-07-06T04:30:06;9.23;;;4.27;;
17987;SDS011;9119;50.932;5.342;2022-07-06T04:32:33;12.30;;;5.43;;
17987;SDS011;9119;50.932;5.342;2022-07-06T04:34:59;10.27;;;4.50;;
17987;SDS011;9119;50.932;5.342;2022-07-06T04:37:25;11.97;;;5.17;;
17987;SDS011;9119;50.932;5.342;2022-07-06T04:39:51;13.17;;;5.07;;
17987;SDS011;9119;50.932;5.342;2022-07-06T04:42:16;9.73;;;4.60;;
17987;SDS011;9119;50.932;5.342;2022-07-06T04:44:42;13.20;;;4.67;;
17987;SDS011;9119;50.932;5.342;2022-07-06T04:47:08;6.63;;;4.47;;
17987;SDS011;9119;50.932;5.342;2022-07-06T04:49:34;11.53;;;4.83;;
17987;SDS011;9119;50.932;5.342;2022-07-06T04:51:59;22.70;;;5.97;;
17987;SDS011;9119;50.932;5.342;2022-07-06T04:54:25;12.07;;;4.80;;
17987;SDS011;9119;50.932;5.342;2022-07-06T04:56:50;15.53;;;5.23;;
17987;SDS011;9119;50.932;5.342;2022-07-06T04:59:17;8.20;;;5.00;;
17987;SDS011;9119;50.932;5.342;2022-07-06T05:01:42;12.60;;;6.13;;
17987;SDS011;9119;50.932;5.342;2022-07-06T05:04:08;16.30;;;5.90;;
17987;SDS011;9119;50.932;5.342;2022-07-06T05:06:34;16.70;;;6.03;;
17987;SDS011;9119;50.932;5.342;2022-07-06T05:08:59;9.73;;;6.03;;
17987;SDS011;9119;50.932;5.342;2022-07-06T05:11:26;13.93;;;7.17;;
17987;SDS011;9119;50.932;5.342;2022-07-06T05:13:52;15.57;;;7.80;;
17987;SDS011;9119;50.932;5.342;2022-07-06T05:16:17;16.03;;;7.13;;
17987;SDS011;9119;50.932;5.342;2022-07-06T05:18:43;12.70;;;7.13;;
17987;SDS011;9119;50.932;5.342;2022-07-06T05:21:09;15.10;;;5.97;;
17987;SDS011;9119;50.932;5.342;2022-07-06T05:23:34;14.20;;;6.20;;
17987;SDS011;9119;50.932;5.342;2022-07-06T05:26:00;21.90;;;7.13;;
17987;SDS011;9119;50.932;5.342;2022-07-06T05:28:26;11.43;;;6.50;;
17987;SDS011;9119;50.932;5.342;2022-07-06T05:30:51;12.53;;;5.50;;
17987;SDS011;9119;50.932;5.342;2022-07-06T05:33:17;19.00;;;7.03;;
17987;SDS011;9119;50.932;5.342;2022-07-06T05:35:43;15.27;;;6.00;;
17987;SDS011;9119;50.932;5.342;2022-07-06T05:38:08;11.63;;;5.50;;
17987;SDS011;9119;50.932;5.342;2022-07-06T05:40:34;14.67;;;5.77;;
17987;SDS011;9119;50.932;5.342;2022-07-06T05:42:59;21.77;;;5.87;;
17987;SDS011;9119;50.932;5.342;2022-07-06T05:45:25;13.23;;;5.50;;
17987;SDS011;9119;50.932;5.342;2022-07-06T05:47:51;13.47;;;5.10;;
17987;SDS011;9119;50.932;5.342;2022-07-06T05:50:35;10.50;;;4.13;;
17987;SDS011;9119;50.932;5.342;2022-07-06T05:53:02;14.20;;;5.03;;
17987;SDS011;9119;50.932;5.342;2022-07-06T05:55:29;27.67;;;5.83;;
17987;SDS011;9119;50.932;5.342;2022-07-06T05:57:54;11.97;;;4.33;;
17987;SDS011;9119;50.932;5.342;2022-07-06T06:00:21;10.53;;;4.23;;
17987;SDS011;9119;50.932;5.342;2022-07-06T06:02:51;12.53;;;3.33;;
17987;SDS011;9119;50.932;5.342;2022-07-06T06:05:17;12.93;;;3.67;;
17987;SDS011;9119;50.932;5.342;2022-07-06T06:07:43;13.83;;;3.50;;
17987;SDS011;9119;50.932;5.342;2022-07-06T06:10:12;10.53;;;2.63;;
17987;SDS011;9119;50.932;5.342;2022-07-06T06:12:38;6.57;;;2.97;;
17987;SDS011;9119;50.932;5.342;2022-07-06T06:15:05;9.67;;;3.30;;
17987;SDS011;9119;50.932;5.342;2022-07-06T06:17:32;10.87;;;3.30;;
17987;SDS011;9119;50.932;5.342;2022-07-06T06:19:57;7.07;;;2.70;;
17987;SDS011;9119;50.932;5.342;2022-07-06T06:22:23;11.73;;;3.40;;
17987;SDS011;9119;50.932;5.342;2022-07-06T06:24:49;9.13;;;3.30;;
17987;SDS011;9119;50.932;5.342;2022-07-06T06:27:15;13.37;;;2.70;;
17987;SDS011;9119;50.932;5.342;2022-07-06T06:29:41;9.40;;;2.17;;
17987;SDS011;9119;50.932;5.342;2022-07-06T06:32:09;8.73;;;2.33;;
17987;SDS011;9119;50.932;5.342;2022-07-06T06:34:38;7.23;;;2.30;;
17987;SDS011;9119;50.932;5.342;2022-07-06T06:37:05;11.53;;;3.20;;
17987;SDS011;9119;50.932;5.342;2022-07-06T06:39:31;5.00;;;2.43;;
17987;SDS011;9119;50.932;5.342;2022-07-06T06:41:57;5.63;;;2.10;;
17987;SDS011;9119;50.932;5.342;2022-07-06T06:44:22;7.73;;;2.40;;
17987;SDS011;9119;50.932;5.342;2022-07-06T06:46:51;7.17;;;3.07;;
17987;SDS011;9119;50.932;5.342;2022-07-06T06:49:19;7.20;;;2.50;;
17987;SDS011;9119;50.932;5.342;2022-07-06T06:51:45;6.40;;;2.13;;
17987;SDS011;9119;50.932;5.342;2022-07-06T06:54:10;8.27;;;2.23;;
17987;SDS011;9119;50.932;5.342;2022-07-06T06:56:36;6.27;;;2.40;;
17987;SDS011;9119;50.932;5.342;2022-07-06T06:59:02;5.73;;;2.67;;
17987;SDS011;9119;50.932;5.342;2022-07-06T07:01:28;6.90;;;2.20;;
17987;SDS011;9119;50.932;5.342;2022-07-06T07:03:54;6.13;;;2.27;;
17987;SDS011;9119;50.932;5.342;2022-07-06T07:06:20;6.03;;;2.20;;
17987;SDS011;9119;50.932;5.342;2022-07-06T07:08:46;6.50;;;2.70;;
17987;SDS011;9119;50.932;5.342;2022-07-06T07:11:12;10.67;;;2.30;;
17987;SDS011;9119;50.932;5.342;2022-07-06T07:13:38;7.40;;;2.60;;
17987;SDS011;9119;50.932;5.342;2022-07-06T07:16:04;5.07;;;1.97;;
17987;SDS011;9119;50.932;5.342;2022-07-06T07:18:30;9.40;;;2.40;;
17987;SDS011;9119;50.932;5.342;2022-07-06T07:20:56;5.47;;;2.50;;
17987;SDS011;9119;50.932;5.342;2022-07-06T07:23:21;3.73;;;1.83;;
17987;SDS011;9119;50.932;5.342;2022-07-06T07:25:47;12.87;;;2.30;;
17987;SDS011;9119;50.932;5.342;2022-07-06T07:28:13;9.10;;;2.10;;
17987;SDS011;9119;50.932;5.342;2022-07-06T07:30:38;3.90;;;2.00;;
17987;SDS011;9119;50.932;5.342;2022-07-06T07:33:04;5.80;;;1.97;;
17987;SDS011;9119;50.932;5.342;2022-07-06T07:35:29;7.40;;;2.63;;
17987;SDS011;9119;50.932;5.342;2022-07-06T07:37:55;9.07;;;2.17;;
17987;SDS011;9119;50.932;5.342;2022-07-06T07:40:21;12.20;;;2.40;;
17987;SDS011;9119;50.932;5.342;2022-07-06T07:42:47;8.73;;;2.30;;
17987;SDS011;9119;50.932;5.342;2022-07-06T07:45:12;9.23;;;1.90;;
17987;SDS011;9119;50.932;5.342;2022-07-06T07:47:38;8.93;;;2.37;;
17987;SDS011;9119;50.932;5.342;2022-07-06T07:50:04;6.13;;;1.70;;
17987;SDS011;9119;50.932;5.342;2022-07-06T07:52:31;6.70;;;1.73;;
17987;SDS011;9119;50.932;5.342;2022-07-06T07:54:57;5.97;;;1.50;;
17987;SDS011;9119;50.932;5.342;2022-07-06T07:57:22;8.10;;;1.50;;
17987;SDS011;9119;50.932;5.342;2022-07-06T07:59:48;9.70;;;1.90;;
17987;SDS011;9119;50.932;5.342;2022-07-06T08:02:14;5.67;;;1.60;;
17987;SDS011;9119;50.932;5.342;2022-07-06T08:04:39;7.43;;;2.27;;
17987;SDS011;9119;50.932;5.342;2022-07-06T08:07:08;6.30;;;1.50;;
17987;SDS011;9119;50.932;5.342;2022-07-06T08:09:34;1.77;;;1.30;;
17987;SDS011;9119;50.932;5.342;2022-07-06T08:11:59;9.53;;;1.53;;
17987;SDS011;9119;50.932;5.342;2022-07-06T08:14:25;5.70;;;1.30;;
17987;SDS011;9119;50.932;5.342;2022-07-06T08:16:51;4.10;;;1.30;;
17987;SDS011;9119;50.932;5.342;2022-07-06T08:19:20;7.53;;;1.40;;
17987;SDS011;9119;50.932;5.342;2022-07-06T08:21:45;3.00;;;1.10;;
17987;SDS011;9119;50.932;5.342;2022-07-06T08:24:12;4.60;;;1.87;;
17987;SDS011;9119;50.932;5.342;2022-07-06T08:26:37;3.03;;;1.13;;
17987;SDS011;9119;50.932;5.342;2022-07-06T08:29:03;3.60;;;1.30;;
17987;SDS011;9119;50.932;5.342;2022-07-06T08:31:29;4.93;;;1.27;;
17987;SDS011;9119;50.932;5.342;2022-07-06T08:33:56;3.30;;;1.10;;
17987;SDS011;9119;50.932;5.342;2022-07-06T08:36:22;1.70;;;0.90;;
17987;SDS011;9119;50.932;5.342;2022-07-06T08:38:48;2.50;;;1.10;;
17987;SDS011;9119;50.932;5.342;2022-07-06T08:41:14;4.53;;;1.47;;
17987;SDS011;9119;50.932;5.342;2022-07-06T08:43:41;3.20;;;1.20;;
17987;SDS011;9119;50.932;5.342;2022-07-06T08:46:07;4.00;;;1.40;;
17987;SDS011;9119;50.932;5.342;2022-07-06T08:48:35;6.10;;;1.43;;
17987;SDS011;9119;50.932;5.342;2022-07-06T08:51:02;7.53;;;1.37;;
17987;SDS011;9119;50.932;5.342;2022-07-06T08:53:29;9.23;;;1.47;;
17987;SDS011;9119;50.932;5.342;2022-07-06T08:55:55;3.43;;;1.30;;
17987;SDS011;9119;50.932;5.342;2022-07-06T08:58:22;4.87;;;1.20;;
17987;SDS011;9119;50.932;5.342;2022-07-06T09:00:49;3.03;;;1.33;;
17987;SDS011;9119;50.932;5.342;2022-07-06T09:03:18;2.20;;;1.10;;
17987;SDS011;9119;50.932;5.342;2022-07-06T09:05:45;14.47;;;7.13;;
17987;SDS011;9119;50.932;5.342;2022-07-06T09:08:13;6.53;;;1.43;;
17987;SDS011;9119;50.932;5.342;2022-07-06T09:10:38;6.80;;;1.27;;
17987;SDS011;9119;50.932;5.342;2022-07-06T09:13:06;3.17;;;1.33;;
17987;SDS011;9119;50.932;5.342;2022-07-06T09:15:33;5.77;;;2.10;;
17987;SDS011;9119;50.932;5.342;2022-07-06T09:18:00;5.57;;;1.63;;
17987;SDS011;9119;50.932;5.342;2022-07-06T09:20:27;2.20;;;1.40;;
17987;SDS011;9119;50.932;5.342;2022-07-06T09:22:59;6.63;;;1.53;;
17987;SDS011;9119;50.932;5.342;2022-07-06T09:25:26;6.93;;;1.90;;
17987;SDS011;9119;50.932;5.342;2022-07-06T09:27:56;7.07;;;2.00;;
17987;SDS011;9119;50.932;5.342;2022-07-06T09:30:26;2.80;;;1.60;;
17987;SDS011;9119;50.932;5.342;2022-07-06T09:32:54;5.47;;;1.53;;
17987;SDS011;9119;50.932;5.342;2022-07-06T09:35:22;2.97;;;1.17;;
17987;SDS011;9119;50.932;5.342;2022-07-06T09:37:59;4.77;;;1.30;;
17987;SDS011;9119;50.932;5.342;2022-07-06T09:40:34;4.23;;;1.77;;
17987;SDS011;9119;50.932;5.342;2022-07-06T09:45:47;14.97;;;6.30;;
17987;SDS011;9119;50.932;5.342;2022-07-06T09:48:16;6.10;;;1.90;;
17987;SDS011;9119;50.932;5.342;2022-07-06T09:50:49;5.80;;;2.90;;
17987;SDS011;9119;50.932;5.342;2022-07-06T09:53:18;8.07;;;1.77;;
17987;SDS011;9119;50.932;5.342;2022-07-06T09:55:48;8.60;;;4.33;;
17987;SDS011;9119;50.932;5.342;2022-07-06T09:58:18;7.37;;;3.50;;
17987;SDS011;9119;50.932;5.342;2022-07-06T10:00:45;14.47;;;4.60;;
17987;SDS011;9119;50.932;5.342;2022-07-06T10:03:12;7.07;;;2.30;;
17987;SDS011;9119;50.932;5.342;2022-07-06T10:05:39;6.50;;;1.90;;
17987;SDS011;9119;50.932;5.342;2022-07-06T10:08:07;13.80;;;4.07;;
17987;SDS011;9119;50.932;5.342;2022-07-06T10:10:37;6.57;;;1.80;;
17987;SDS011;9119;50.932;5.342;2022-07-06T10:13:05;6.63;;;2.00;;
17987;SDS011;9119;50.932;5.342;2022-07-06T10:15:32;6.93;;;1.80;;
17987;SDS011;9119;50.932;5.342;2022-07-06T10:17:59;3.30;;;1.67;;
17987;SDS011;9119;50.932;5.342;2022-07-06T10:20:29;5.87;;;1.40;;
17987;SDS011;9119;50.932;5.342;2022-07-06T10:22:58;3.43;;;1.80;;
17987;SDS011;9119;50.932;5.342;2022-07-06T10:25:25;3.37;;;1.90;;
17987;SDS011;9119;50.932;5.342;2022-07-06T10:27:51;3.50;;;1.60;;
17987;SDS011;9119;50.932;5.342;2022-07-06T10:30:17;6.20;;;1.73;;
17987;SDS011;9119;50.932;5.342;2022-07-06T10:32:44;10.30;;;1.90;;
17987;SDS011;9119;50.932;5.342;2022-07-06T10:35:13;3.30;;;1.60;;
17987;SDS011;9119;50.932;5.342;2022-07-06T10:37:39;10.30;;;2.40;;
17987;SDS011;9119;50.932;5.342;2022-07-06T10:40:05;6.53;;;1.93;;
17987;SDS011;9119;50.932;5.342;2022-07-06T10:42:57;10.90;;;2.57;;
17987;SDS011;9119;50.932;5.342;2022-07-06T10:50:58;6.70;;;1.90;;
17987;SDS011;9119;50.932;5.342;2022-07-06T10:53:25;4.10;;;1.80;;
17987;SDS011;9119;50.932;5.342;2022-07-06T10:55:52;8.33;;;1.70;;
17987;SDS011;9119;50.932;5.342;2022-07-06T10:58:39;4.57;;;1.83;;
17987;SDS011;9119;50.932;5.342;2022-07-06T11:01:09;8.40;;;2.17;;
17987;SDS011;9119;50.932;5.342;2022-07-06T11:03:37;5.20;;;1.93;;
17987;SDS011;9119;50.932;5.342;2022-07-06T11:06:14;5.87;;;1.90;;
17987;SDS011;9119;50.932;5.342;2022-07-06T11:08:53;7.97;;;2.13;;
17987;SDS011;9119;50.932;5.342;2022-07-06T11:11:24;7.17;;;1.70;;
17987;SDS011;9119;50.932;5.342;2022-07-06T11:13:51;6.73;;;2.03;;
17987;SDS011;9119;50.932;5.342;2022-07-06T11:16:18;12.13;;;2.30;;
17987;SDS011;9119;50.932;5.342;2022-07-06T11:18:46;5.20;;;1.93;;
17987;SDS011;9119;50.932;5.342;2022-07-06T11:21:20;4.77;;;1.47;;
17987;SDS011;9119;50.932;5.342;2022-07-06T11:23:57;4.53;;;1.77;;
17987;SDS011;9119;50.932;5.342;2022-07-06T11:26:23;12.07;;;1.87;;
17987;SDS011;9119;50.932;5.342;2022-07-06T11:28:49;11.73;;;2.00;;
17987;SDS011;9119;50.932;5.342;2022-07-06T11:31:17;3.90;;;1.87;;
17987;SDS011;9119;50.932;5.342;2022-07-06T11:33:46;4.70;;;1.77;;
17987;SDS011;9119;50.932;5.342;2022-07-06T11:36:19;5.00;;;1.90;;
17987;SDS011;9119;50.932;5.342;2022-07-06T11:38:47;5.67;;;1.90;;
17987;SDS011;9119;50.932;5.342;2022-07-06T11:41:15;8.33;;;2.87;;
17987;SDS011;9119;50.932;5.342;2022-07-06T11:43:45;7.00;;;2.13;;
17987;SDS011;9119;50.932;5.342;2022-07-06T11:46:32;5.00;;;1.90;;
17987;SDS011;9119;50.932;5.342;2022-07-06T11:49:03;7.17;;;2.00;;
17987;SDS011;9119;50.932;5.342;2022-07-06T11:51:31;12.17;;;2.87;;
17987;SDS011;9119;50.932;5.342;2022-07-06T11:53:59;2.80;;;1.80;;
17987;SDS011;9119;50.932;5.342;2022-07-06T11:56:27;5.23;;;1.97;;
17987;SDS011;9119;50.932;5.342;2022-07-06T11:58:55;5.07;;;1.80;;
17987;SDS011;9119;50.932;5.342;2022-07-06T12:01:22;3.87;;;1.77;;
17987;SDS011;9119;50.932;5.342;2022-07-06T12:03:50;11.03;;;2.60;;
17987;SDS011;9119;50.932;5.342;2022-07-06T12:06:17;7.47;;;2.20;;
17987;SDS011;9119;50.932;5.342;2022-07-06T12:08:54;6.83;;;1.93;;
17987;SDS011;9119;50.932;5.342;2022-07-06T12:11:22;8.30;;;2.00;;
17987;SDS011;9119;50.932;5.342;2022-07-06T12:14:00;4.90;;;2.07;;
17987;SDS011;9119;50.932;5.342;2022-07-06T12:16:29;5.73;;;2.00;;
17987;SDS011;9119;50.932;5.342;2022-07-06T12:18:55;7.60;;;1.90;;
17987;SDS011;9119;50.932;5.342;2022-07-06T12:21:20;10.90;;;2.40;;
17987;SDS011;9119;50.932;5.342;2022-07-06T12:23:50;11.27;;;2.47;;
17987;SDS011;9119;50.932;5.342;2022-07-06T12:26:20;2.90;;;1.70;;
17987;SDS011;9119;50.932;5.342;2022-07-06T12:29:07;19.20;;;2.97;;
17987;SDS011;9119;50.932;5.342;2022-07-06T12:31:36;6.80;;;3.23;;
17987;SDS011;9119;50.932;5.342;2022-07-06T12:34:04;6.93;;;1.83;;
17987;SDS011;9119;50.932;5.342;2022-07-06T12:36:30;7.50;;;2.17;;
17987;SDS011;9119;50.932;5.342;2022-07-06T12:39:09;5.83;;;1.60;;
17987;SDS011;9119;50.932;5.342;2022-07-06T12:41:37;58.77;;;5.97;;
17987;SDS011;9119;50.932;5.342;2022-07-06T12:44:09;8.80;;;2.57;;
17987;SDS011;9119;50.932;5.342;2022-07-06T12:46:39;2.60;;;1.60;;
17987;SDS011;9119;50.932;5.342;2022-07-06T12:49:16;6.87;;;2.10;;
17987;SDS011;9119;50.932;5.342;2022-07-06T12:51:49;4.23;;;1.97;;
17987;SDS011;9119;50.932;5.342;2022-07-06T12:54:48;5.93;;;1.83;;
17987;SDS011;9119;50.932;5.342;2022-07-06T12:57:16;10.57;;;2.43;;
17987;SDS011;9119;50.932;5.342;2022-07-06T13:02:33;12.93;;;2.00;;
17987;SDS011;9119;50.932;5.342;2022-07-06T13:05:03;5.03;;;2.43;;
17987;SDS011;9119;50.932;5.342;2022-07-06T13:07:36;8.50;;;2.90;;
17987;SDS011;9119;50.932;5.342;2022-07-06T13:10:04;7.20;;;2.00;;
17987;SDS011;9119;50.932;5.342;2022-07-06T13:12:34;19.20;;;3.13;;
17987;SDS011;9119;50.932;5.342;2022-07-06T13:15:00;10.90;;;2.20;;
17987;SDS011;9119;50.932;5.342;2022-07-06T13:17:27;5.17;;;2.10;;
17987;SDS011;9119;50.932;5.342;2022-07-06T13:19:53;11.97;;;2.30;;
17987;SDS011;9119;50.932;5.342;2022-07-06T13:22:18;5.00;;;2.33;;
17987;SDS011;9119;50.932;5.342;2022-07-06T13:24:44;4.93;;;2.23;;
17987;SDS011;9119;50.932;5.342;2022-07-06T13:27:10;9.70;;;2.33;;
17987;SDS011;9119;50.932;5.342;2022-07-06T13:29:36;7.83;;;2.30;;
17987;SDS011;9119;50.932;5.342;2022-07-06T13:32:02;5.67;;;2.20;;
17987;SDS011;9119;50.932;5.342;2022-07-06T13:34:31;7.33;;;2.40;;
17987;SDS011;9119;50.932;5.342;2022-07-06T13:36:57;8.67;;;3.13;;
17987;SDS011;9119;50.932;5.342;2022-07-06T13:39:23;9.43;;;2.80;;
17987;SDS011;9119;50.932;5.342;2022-07-06T13:41:49;14.37;;;2.77;;
17987;SDS011;9119;50.932;5.342;2022-07-06T13:44:15;8.40;;;2.23;;
17987;SDS011;9119;50.932;5.342;2022-07-06T13:46:40;8.63;;;2.23;;
17987;SDS011;9119;50.932;5.342;2022-07-06T13:49:07;4.90;;;2.30;;
17987;SDS011;9119;50.932;5.342;2022-07-06T13:51:33;9.07;;;2.93;;
17987;SDS011;9119;50.932;5.342;2022-07-06T13:53:59;8.83;;;2.60;;
17987;SDS011;9119;50.932;5.342;2022-07-06T13:56:25;7.00;;;2.17;;
17987;SDS011;9119;50.932;5.342;2022-07-06T13:58:51;6.37;;;2.07;;
17987;SDS011;9119;50.932;5.342;2022-07-06T14:01:16;5.23;;;2.07;;
17987;SDS011;9119;50.932;5.342;2022-07-06T14:03:42;7.83;;;3.37;;
17987;SDS011;9119;50.932;5.342;2022-07-06T14:06:08;5.87;;;2.00;;
17987;SDS011;9119;50.932;5.342;2022-07-06T14:08:35;14.50;;;2.40;;
17987;SDS011;9119;50.932;5.342;2022-07-06T14:11:02;8.13;;;2.30;;
17987;SDS011;9119;50.932;5.342;2022-07-06T14:13:28;8.83;;;2.23;;
17987;SDS011;9119;50.932;5.342;2022-07-06T14:15:54;7.17;;;3.07;;
17987;SDS011;9119;50.932;5.342;2022-07-06T14:18:20;10.23;;;2.50;;
17987;SDS011;9119;50.932;5.342;2022-07-06T14:20:46;5.17;;;2.00;;
17987;SDS011;9119;50.932;5.342;2022-07-06T14:23:13;18.83;;;4.00;;
17987;SDS011;9119;50.932;5.342;2022-07-06T14:25:40;11.13;;;2.97;;
17987;SDS011;9119;50.932;5.342;2022-07-06T14:28:06;6.33;;;2.90;;
17987;SDS011;9119;50.932;5.342;2022-07-06T14:30:33;9.90;;;4.30;;
17987;SDS011;9119;50.932;5.342;2022-07-06T14:32:59;6.73;;;2.50;;
17987;SDS011;9119;50.932;5.342;2022-07-06T14:35:26;10.93;;;2.63;;
17987;SDS011;9119;50.932;5.342;2022-07-06T14:37:52;7.00;;;2.17;;
17987;SDS011;9119;50.932;5.342;2022-07-06T14:40:18;4.83;;;2.20;;
17987;SDS011;9119;50.932;5.342;2022-07-06T14:42:43;7.60;;;2.40;;
17987;SDS011;9119;50.932;5.342;2022-07-06T14:45:09;5.87;;;2.40;;
17987;SDS011;9119;50.932;5.342;2022-07-06T14:47:35;8.63;;;2.30;;
17987;SDS011;9119;50.932;5.342;2022-07-06T14:50:01;7.30;;;2.40;;
17987;SDS011;9119;50.932;5.342;2022-07-06T14:52:28;6.43;;;2.00;;
17987;SDS011;9119;50.932;5.342;2022-07-06T14:54:54;8.87;;;2.20;;
17987;SDS011;9119;50.932;5.342;2022-07-06T14:57:20;5.40;;;2.50;;
17987;SDS011;9119;50.932;5.342;2022-07-06T14:59:45;9.37;;;2.87;;
17987;SDS011;9119;50.932;5.342;2022-07-06T15:02:11;7.53;;;2.83;;
17987;SDS011;9119;50.932;5.342;2022-07-06T15:04:37;10.83;;;5.97;;
17987;SDS011;9119;50.932;5.342;2022-07-06T15:07:02;6.37;;;2.33;;
17987;SDS011;9119;50.932;5.342;2022-07-06T15:09:28;7.70;;;2.60;;